createdAt,value
2022-08-21T00:00:23.267Z,69.10
2022-08-21T00:02:55.404Z,69.20
2022-08-21T00:05:23.923Z,69.00
2022-08-21T00:07:51.051Z,69.10
2022-08-21T00:10:19.094Z,69.30
2022-08-21T00:12:47.126Z,69.30
2022-08-21T00:15:19.823Z,69.50
2022-08-21T00:17:47.518Z,69.60
2022-08-21T00:20:15.748Z,69.50
2022-08-21T00:22:43.034Z,69.60
2022-08-21T00:25:10.914Z,69.60
2022-08-21T00:27:40.325Z,69.60
2022-08-21T00:30:08.597Z,69.80
2022-08-21T00:32:38.718Z,69.80
2022-08-21T00:35:14.129Z,70.00
2022-08-21T00:37:42.360Z,70.00
2022-08-21T00:40:12.914Z,70.00
2022-08-21T00:42:40.852Z,70.00
2022-08-21T00:45:08.878Z,69.90
2022-08-21T00:47:36.048Z,70.10
2022-08-21T00:50:05.774Z,69.90
2022-08-21T00:52:35.004Z,70.10
2022-08-21T00:55:02.893Z,70.30
2022-08-21T00:57:34.340Z,70.20
2022-08-21T01:00:05.090Z,70.30
2022-08-21T01:02:32.599Z,70.50
2022-08-21T01:04:59.594Z,70.40
2022-08-21T01:07:27.700Z,70.40
2022-08-21T01:09:54.805Z,70.60
2022-08-21T01:12:22.385Z,70.40
2022-08-21T01:14:49.486Z,70.50
2022-08-21T01:17:17.618Z,70.60
2022-08-21T01:19:44.858Z,70.70
2022-08-21T01:22:11.906Z,70.70
2022-08-21T01:24:39.034Z,70.90
2022-08-21T01:27:06.528Z,70.90
2022-08-21T01:30:10.916Z,70.90
2022-08-21T01:32:37.941Z,71.40
2022-08-21T01:35:06.618Z,71.20
2022-08-21T01:37:34.064Z,71.00
2022-08-21T01:40:01.674Z,71.00
2022-08-21T01:42:28.652Z,71.20
2022-08-21T01:44:56.301Z,71.20
2022-08-21T01:47:25.139Z,71.30
2022-08-21T01:49:52.971Z,71.20
2022-08-21T01:52:20.317Z,72.10
2022-08-21T01:54:47.370Z,71.50
2022-08-21T01:57:22.873Z,71.40
2022-08-21T01:59:54.001Z,71.50
2022-08-21T02:02:21.034Z,71.50
2022-08-21T02:04:47.965Z,71.70
2022-08-21T02:07:16.160Z,71.70
2022-08-21T02:10:01.802Z,71.80
2022-08-21T02:12:28.972Z,72.20
2022-08-21T02:14:55.892Z,72.00
2022-08-21T02:17:23.594Z,72.00
2022-08-21T02:19:50.809Z,72.10
2022-08-21T02:22:17.879Z,72.10
2022-08-21T02:24:54.275Z,72.10
2022-08-21T02:27:26.818Z,72.10
2022-08-21T02:29:58.303Z,72.40
2022-08-21T02:32:26.834Z,72.20
2022-08-21T02:34:54.376Z,72.40
2022-08-21T02:37:21.854Z,72.40
2022-08-21T02:39:49.073Z,72.50
2022-08-21T02:42:16.305Z,72.50
2022-08-21T02:44:43.390Z,72.60
2022-08-21T02:47:10.332Z,72.70
2022-08-21T02:49:40.353Z,72.80
2022-08-21T02:52:07.302Z,72.90
2022-08-21T02:54:34.281Z,72.80
2022-08-21T02:57:01.398Z,72.80
2022-08-21T02:59:28.454Z,72.80
2022-08-21T03:01:56.896Z,72.90
2022-08-21T03:04:24.197Z,73.00
2022-08-21T03:06:51.242Z,73.10
2022-08-21T03:09:18.382Z,73.10
2022-08-21T03:11:45.320Z,73.20
2022-08-21T03:14:12.247Z,73.30
2022-08-21T03:16:39.243Z,73.30
2022-08-21T03:19:07.290Z,73.20
2022-08-21T03:21:34.530Z,73.40
2022-08-21T03:24:04.172Z,73.30
2022-08-21T03:26:32.107Z,73.50
2022-08-21T03:28:59.562Z,73.50
2022-08-21T03:31:31.719Z,73.50
2022-08-21T03:33:59.691Z,73.50
2022-08-21T03:36:26.687Z,73.70
2022-08-21T03:38:54.634Z,73.80
2022-08-21T03:41:21.781Z,73.90
2022-08-21T03:43:48.804Z,73.90
2022-08-21T03:46:15.773Z,73.90
2022-08-21T03:48:42.833Z,73.90
2022-08-21T03:51:09.920Z,74.10
2022-08-21T03:53:37.439Z,74.00
2022-08-21T03:56:07.724Z,74.10
2022-08-21T03:58:35.944Z,74.20
2022-08-21T04:01:05.519Z,74.20
2022-08-21T04:03:32.639Z,74.30
2022-08-21T04:06:00.096Z,74.40
2022-08-21T04:08:28.186Z,74.30
2022-08-21T04:10:57.709Z,74.40
2022-08-21T04:13:25.105Z,74.40
2022-08-21T04:15:52.172Z,74.50
2022-08-21T04:18:20.247Z,74.50
2022-08-21T04:20:50.717Z,74.60
2022-08-21T04:23:24.013Z,74.70
2022-08-21T04:25:52.786Z,75.30
2022-08-21T04:28:19.898Z,75.50
2022-08-21T04:30:47.447Z,74.80
2022-08-21T04:33:14.879Z,74.90
2022-08-21T04:35:43.037Z,74.90
2022-08-21T04:38:11.625Z,75.00
2022-08-21T04:40:38.877Z,75.10
2022-08-21T04:43:08.621Z,75.00
2022-08-21T04:45:41.180Z,75.20
2022-08-21T04:48:13.869Z,75.20
2022-08-21T04:51:01.483Z,75.30
2022-08-21T04:53:31.638Z,75.80
2022-08-21T04:56:03.137Z,75.40
2022-08-21T04:58:31.884Z,75.60
2022-08-21T05:00:59.825Z,75.50
2022-08-21T05:03:27.279Z,75.60
2022-08-21T05:05:54.436Z,75.70
2022-08-21T05:08:24.184Z,75.60
2022-08-21T05:10:51.486Z,75.80
2022-08-21T05:13:19.115Z,75.90
2022-08-21T05:15:46.086Z,75.90
2022-08-21T05:18:13.480Z,75.90
2022-08-21T05:20:40.536Z,76.00
2022-08-21T05:23:12.422Z,76.10
2022-08-21T05:25:39.529Z,76.10
2022-08-21T05:28:07.406Z,76.90
2022-08-21T05:30:35.765Z,76.20
2022-08-21T05:33:05.036Z,76.20
2022-08-21T05:35:36.245Z,76.20
2022-08-21T05:38:04.935Z,76.20
2022-08-21T05:40:32.458Z,76.40
2022-08-21T05:43:00.220Z,76.40
2022-08-21T05:45:42.883Z,76.40
2022-08-21T05:48:22.251Z,76.40
2022-08-21T05:50:50.824Z,76.60
2022-08-21T05:53:19.812Z,76.30
2022-08-21T05:55:48.035Z,76.60
2022-08-21T05:58:17.174Z,76.60
2022-08-21T06:00:45.343Z,76.60
2022-08-21T06:03:18.930Z,76.70
2022-08-21T06:05:46.728Z,76.80
2022-08-21T06:08:14.897Z,76.80
2022-08-21T06:10:42.354Z,76.70
2022-08-21T06:13:10.121Z,76.70
2022-08-21T06:15:37.210Z,76.80
2022-08-21T06:18:04.279Z,76.80
2022-08-21T06:20:31.333Z,76.90
2022-08-21T06:22:58.702Z,76.90
2022-08-21T06:25:25.772Z,77.00
2022-08-21T06:27:52.932Z,76.90
2022-08-21T06:30:20.178Z,76.90
2022-08-21T06:32:47.195Z,76.80
2022-08-21T06:35:14.419Z,76.90
2022-08-21T06:37:41.418Z,76.80
2022-08-21T06:40:12.626Z,76.70
2022-08-21T06:42:41.277Z,76.60
2022-08-21T06:45:09.094Z,76.20
2022-08-21T06:47:36.112Z,76.00
2022-08-21T06:50:03.714Z,75.90
2022-08-21T06:52:30.653Z,75.80
2022-08-21T06:54:57.657Z,75.90
2022-08-21T06:57:26.173Z,76.00
2022-08-21T06:59:53.114Z,75.90
2022-08-21T07:02:20.324Z,75.90
2022-08-21T07:04:47.221Z,76.00
2022-08-21T07:07:14.472Z,76.00
2022-08-21T07:09:41.562Z,76.80
2022-08-21T07:12:08.767Z,76.10
2022-08-21T07:14:35.883Z,76.20
2022-08-21T07:17:03.083Z,76.30
2022-08-21T07:19:30.002Z,76.30
2022-08-21T07:22:00.753Z,76.20
2022-08-21T07:24:27.796Z,76.40
2022-08-21T07:26:56.485Z,76.40
2022-08-21T07:29:23.595Z,76.50
2022-08-21T07:31:50.769Z,76.60
2022-08-21T07:34:17.717Z,77.60
2022-08-21T07:36:44.706Z,77.00
2022-08-21T07:39:11.692Z,77.20
2022-08-21T07:41:38.630Z,77.00
2022-08-21T07:44:06.549Z,77.20
2022-08-21T07:46:33.710Z,77.20
2022-08-21T07:49:01.720Z,77.30
2022-08-21T07:51:30.028Z,77.40
2022-08-21T07:54:00.226Z,77.70
2022-08-21T07:56:28.717Z,77.90
2022-08-21T07:58:56.784Z,77.70
2022-08-21T08:01:24.239Z,78.00
2022-08-21T08:03:51.660Z,78.10
2022-08-21T08:06:19.800Z,78.00
2022-08-21T08:08:47.492Z,78.20
2022-08-21T08:11:16.307Z,78.20
2022-08-21T08:13:49.531Z,78.30
2022-08-21T08:16:17.175Z,78.40
2022-08-21T08:18:45.353Z,78.50
2022-08-21T08:21:13.669Z,78.30
2022-08-21T08:23:40.739Z,78.30
2022-08-21T08:26:08.102Z,78.50
2022-08-21T08:28:54.169Z,78.60
2022-08-21T08:31:21.218Z,78.90
2022-08-21T08:33:48.096Z,79.10
2022-08-21T08:36:17.131Z,79.40
2022-08-21T08:38:45.449Z,79.60
2022-08-21T08:41:16.688Z,79.60
2022-08-21T08:43:54.072Z,79.90
2022-08-21T08:46:30.479Z,79.80
2022-08-21T08:49:04.393Z,79.90
2022-08-21T08:52:14.888Z,80.10
2022-08-21T08:54:59.094Z,80.10
2022-08-21T08:57:26.436Z,80.50
2022-08-21T08:59:57.177Z,80.70
2022-08-21T09:02:24.911Z,80.90
2022-08-21T09:04:54.846Z,81.20
2022-08-21T09:07:24.924Z,81.20
2022-08-21T09:10:22.116Z,81.40
2022-08-21T09:13:10.991Z,81.20
2022-08-21T09:15:55.326Z,81.20
2022-08-21T09:19:24.980Z,76.60
2022-08-21T09:22:31.314Z,73.00
2022-08-21T09:25:21.154Z,72.50
2022-08-21T09:27:51.607Z,71.20
2022-08-21T09:30:22.550Z,72.40
2022-08-21T09:32:49.569Z,71.70
2022-08-21T09:35:23.835Z,71.40
2022-08-21T09:37:59.246Z,70.60
2022-08-21T09:40:38.461Z,70.10
2022-08-21T09:43:28.753Z,69.70
2022-08-21T09:46:06.316Z,70.20
2022-08-21T09:48:45.000Z,69.60
2022-08-21T09:51:21.770Z,69.10
2022-08-21T09:54:15.276Z,69.30
2022-08-21T09:57:24.827Z,67.60
2022-08-21T09:59:52.167Z,67.60
2022-08-21T10:02:30.369Z,68.10
2022-08-21T10:05:01.582Z,67.40
2022-08-21T10:07:31.598Z,66.80
2022-08-21T10:10:10.648Z,66.40
2022-08-21T10:12:40.861Z,66.20
2022-08-21T10:15:08.867Z,66.00
2022-08-21T10:18:17.920Z,65.60
2022-08-21T10:20:59.618Z,64.40
2022-08-21T10:23:36.892Z,65.00
2022-08-21T10:26:14.027Z,64.80
2022-08-21T10:28:48.931Z,64.10
2022-08-21T10:31:34.179Z,64.30
2022-08-21T10:34:24.956Z,64.20
2022-08-21T10:36:58.054Z,64.60
2022-08-21T10:39:36.314Z,64.00
2022-08-21T10:42:44.587Z,63.80
2022-08-21T10:45:39.348Z,61.80
2022-08-21T10:48:09.063Z,63.00
2022-08-21T10:50:51.601Z,63.40
2022-08-21T10:53:41.527Z,62.90
2022-08-21T10:56:29.754Z,62.00
2022-08-21T10:59:20.895Z,61.90
2022-08-21T11:01:54.128Z,61.90
2022-08-21T11:04:34.132Z,61.30
2022-08-21T11:07:43.696Z,61.20
2022-08-21T11:10:25.691Z,60.50
2022-08-21T11:13:08.276Z,59.80
2022-08-21T11:15:45.861Z,59.80
2022-08-21T11:18:24.940Z,60.20
2022-08-21T11:21:29.694Z,60.70
2022-08-21T11:24:11.836Z,60.00
2022-08-21T11:26:52.327Z,60.80
2022-08-21T11:29:27.756Z,60.90
2022-08-21T11:32:13.070Z,60.50
2022-08-21T11:35:07.083Z,59.70
2022-08-21T11:37:55.030Z,60.00
2022-08-21T11:40:39.772Z,60.40
2022-08-21T11:43:35.992Z,60.00
2022-08-21T11:46:17.972Z,60.00
2022-08-21T11:48:59.859Z,59.40
2022-08-21T11:51:46.933Z,59.50
2022-08-21T11:54:36.546Z,59.70
2022-08-21T11:57:23.887Z,59.70
2022-08-21T12:00:10.192Z,59.70
2022-08-21T12:02:50.855Z,59.80
2022-08-21T12:05:37.229Z,60.20
2022-08-21T12:08:10.726Z,59.80
2022-08-21T12:10:42.169Z,59.90
2022-08-21T12:13:15.003Z,59.60
2022-08-21T12:15:42.037Z,59.50
2022-08-21T12:18:44.744Z,59.60
2022-08-21T12:21:23.016Z,58.70
2022-08-21T12:24:13.812Z,59.30
2022-08-21T12:27:02.259Z,60.10
2022-08-21T12:29:38.578Z,59.10
2022-08-21T12:32:11.416Z,59.20
2022-08-21T12:34:47.642Z,59.40
2022-08-21T12:37:37.717Z,59.40
2022-08-21T12:40:11.464Z,59.30
2022-08-21T12:42:43.211Z,59.30
2022-08-21T12:45:34.797Z,59.30
2022-08-21T12:48:26.345Z,59.30
2022-08-21T12:51:26.773Z,59.80
2022-08-21T12:53:57.010Z,59.50
2022-08-21T12:56:27.102Z,59.80
2022-08-21T12:59:14.584Z,59.70
2022-08-21T13:01:49.677Z,59.20
2022-08-21T13:04:26.344Z,59.40
2022-08-21T13:06:55.538Z,59.50
2022-08-21T13:09:29.049Z,60.10
2022-08-21T13:11:56.862Z,59.60
2022-08-21T13:14:46.168Z,59.70
2022-08-21T13:17:23.386Z,59.30
2022-08-21T13:20:02.172Z,59.20
2022-08-21T13:22:33.485Z,58.00
2022-08-21T13:25:06.850Z,58.40
2022-08-21T13:27:35.444Z,58.30
2022-08-21T13:30:10.930Z,58.50
2022-08-21T13:32:44.122Z,58.10
2022-08-21T13:35:15.407Z,57.30
2022-08-21T13:37:44.145Z,57.00
2022-08-21T13:40:17.369Z,56.80
2022-08-21T13:42:46.815Z,56.70
2022-08-21T13:45:32.316Z,56.60
2022-08-21T13:48:06.001Z,56.40
2022-08-21T13:50:36.116Z,56.40
2022-08-21T13:53:08.744Z,56.00
2022-08-21T13:55:39.890Z,55.60
2022-08-21T13:58:08.082Z,55.80
2022-08-21T14:00:44.453Z,55.60
2022-08-21T14:03:13.898Z,55.80
2022-08-21T14:05:46.872Z,56.10
2022-08-21T14:08:21.454Z,56.30
2022-08-21T14:10:58.074Z,55.80
2022-08-21T14:13:35.084Z,55.60
2022-08-21T14:16:16.508Z,56.90
2022-08-21T14:18:50.716Z,56.70
2022-08-21T14:21:31.117Z,55.30
2022-08-21T14:24:13.659Z,54.30
2022-08-21T14:26:55.425Z,55.60
2022-08-21T14:29:27.533Z,54.80
2022-08-21T14:32:21.686Z,56.10
2022-08-21T14:34:54.548Z,55.40
2022-08-21T14:37:23.081Z,55.20
2022-08-21T14:39:50.364Z,55.00
2022-08-21T14:42:17.431Z,54.60
2022-08-21T14:44:44.613Z,54.30
2022-08-21T14:47:11.991Z,53.70
2022-08-21T14:49:48.873Z,53.70
2022-08-21T14:52:16.593Z,53.60
2022-08-21T14:54:43.574Z,53.70
2022-08-21T14:57:13.229Z,53.80
2022-08-21T14:59:40.890Z,54.10
2022-08-21T15:02:09.560Z,54.40
2022-08-21T15:04:36.660Z,54.70
2022-08-21T15:07:04.266Z,55.00
2022-08-21T15:09:31.419Z,55.30
2022-08-21T15:12:01.340Z,55.60
2022-08-21T15:14:31.837Z,56.50
2022-08-21T15:16:59.047Z,56.10
2022-08-21T15:19:26.608Z,56.30
2022-08-21T15:21:53.997Z,56.50
2022-08-21T15:24:21.046Z,56.70
2022-08-21T15:26:48.635Z,57.00
2022-08-21T15:29:22.502Z,57.30
2022-08-21T15:31:58.529Z,57.40
2022-08-21T15:34:30.909Z,57.80
2022-08-21T15:36:59.343Z,58.00
2022-08-21T15:39:30.320Z,58.20
2022-08-21T15:41:59.153Z,58.40
2022-08-21T15:44:28.434Z,58.50
2022-08-21T15:46:56.506Z,58.70
2022-08-21T15:49:23.956Z,58.90
2022-08-21T15:51:51.093Z,59.00
2022-08-21T15:54:18.234Z,59.10
2022-08-21T15:56:48.965Z,59.30
2022-08-21T15:59:20.729Z,59.50
2022-08-21T16:01:48.261Z,59.70
2022-08-21T16:04:23.325Z,59.80
2022-08-21T16:06:55.593Z,59.90
2022-08-21T16:09:23.466Z,60.10
2022-08-21T16:11:50.631Z,60.30
2022-08-21T16:14:18.550Z,60.60
2022-08-21T16:16:46.562Z,60.80
2022-08-21T16:19:15.012Z,61.00
2022-08-21T16:21:42.272Z,61.20
2022-08-21T16:24:09.285Z,61.40
2022-08-21T16:26:36.349Z,61.60
2022-08-21T16:29:04.335Z,62.00
2022-08-21T16:31:32.899Z,62.20
2022-08-21T16:34:00.633Z,62.40
2022-08-21T16:36:27.862Z,62.60
2022-08-21T16:38:56.441Z,62.90
2022-08-21T16:41:27.268Z,63.20
2022-08-21T16:43:54.430Z,63.40
2022-08-21T16:46:22.605Z,63.70
2022-08-21T16:48:50.717Z,64.00
2022-08-21T16:51:17.889Z,64.30
2022-08-21T16:53:45.217Z,64.70
2022-08-21T16:56:15.172Z,64.90
2022-08-21T16:58:47.538Z,65.20
2022-08-21T17:01:19.774Z,65.40
2022-08-21T17:03:51.092Z,65.50
2022-08-21T17:06:18.954Z,65.50
2022-08-21T17:08:46.498Z,65.60
2022-08-21T17:11:36.665Z,65.90
2022-08-21T17:14:15.004Z,67.00
2022-08-21T17:16:46.075Z,66.40
2022-08-21T17:19:13.936Z,66.50
2022-08-21T17:21:41.149Z,66.80
2022-08-21T17:24:08.217Z,67.00
2022-08-21T17:26:35.586Z,67.20
2022-08-21T17:29:04.468Z,67.30
2022-08-21T17:31:32.770Z,67.60
2022-08-21T17:34:00.346Z,67.90
2022-08-21T17:36:29.658Z,68.00
2022-08-21T17:38:58.420Z,68.30
2022-08-21T17:41:26.859Z,68.60
2022-08-21T17:43:55.109Z,68.60
2022-08-21T17:46:28.864Z,68.80
2022-08-21T17:48:57.239Z,68.80
2022-08-21T17:51:24.678Z,68.80
2022-08-21T17:53:51.693Z,68.80
2022-08-21T17:56:20.079Z,69.40
2022-08-21T17:58:52.103Z,69.40
2022-08-21T18:01:20.293Z,69.30
2022-08-21T18:03:48.459Z,69.70
2022-08-21T18:06:17.966Z,69.80
2022-08-21T18:08:46.069Z,69.70
2022-08-21T18:11:23.165Z,69.70
2022-08-21T18:13:54.022Z,69.80
2022-08-21T18:16:22.185Z,69.80
2022-08-21T18:18:51.519Z,70.20
2022-08-21T18:21:18.967Z,70.30
2022-08-21T18:23:46.099Z,70.30
2022-08-21T18:26:26.023Z,70.20
2022-08-21T18:28:53.558Z,70.30
2022-08-21T18:31:21.657Z,70.00
2022-08-21T18:33:58.364Z,69.40
2022-08-21T18:36:27.143Z,69.30
2022-08-21T18:39:04.413Z,68.90
2022-08-21T18:41:41.440Z,68.90
2022-08-21T18:44:08.793Z,68.90
2022-08-21T18:46:35.915Z,68.70
2022-08-21T18:49:03.515Z,68.50
2022-08-21T18:51:30.637Z,68.60
2022-08-21T18:53:57.577Z,68.80
2022-08-21T18:56:25.064Z,68.90
2022-08-21T18:58:58.203Z,69.20
2022-08-21T19:01:25.985Z,69.10
2022-08-21T19:03:52.952Z,69.30
2022-08-21T19:06:20.066Z,69.10
2022-08-21T19:08:47.165Z,69.20
2022-08-21T19:11:15.400Z,69.20
2022-08-21T19:13:53.060Z,69.30
2022-08-21T19:16:21.918Z,69.20
2022-08-21T19:18:49.913Z,69.40
2022-08-21T19:21:17.251Z,69.60
2022-08-21T19:23:52.547Z,69.00
2022-08-21T19:26:22.890Z,69.00
2022-08-21T19:28:59.552Z,68.90
2022-08-21T19:31:33.515Z,69.10
2022-08-21T19:34:28.250Z,68.60
2022-08-21T19:36:59.323Z,68.60
2022-08-21T19:39:27.379Z,68.10
2022-08-21T19:41:58.321Z,68.10
2022-08-21T19:44:29.421Z,68.10
2022-08-21T19:46:59.987Z,68.00
2022-08-21T19:49:34.421Z,68.40
2022-08-21T19:52:02.258Z,67.90
2022-08-21T19:54:40.606Z,67.60
2022-08-21T19:57:11.268Z,67.50
2022-08-21T19:59:40.491Z,67.60
2022-08-21T20:02:09.524Z,67.60
2022-08-21T20:04:37.103Z,67.60
2022-08-21T20:07:08.235Z,67.80
2022-08-21T20:09:37.072Z,67.70
2022-08-21T20:12:10.338Z,67.50
2022-08-21T20:14:43.965Z,67.80
2022-08-21T20:17:13.959Z,68.00
2022-08-21T20:19:43.219Z,67.70
2022-08-21T20:22:12.151Z,68.20
2022-08-21T20:24:41.934Z,67.60
2022-08-21T20:27:13.779Z,67.50
2022-08-21T20:29:42.812Z,67.70
2022-08-21T20:34:59.061Z,67.70
2022-08-21T20:37:45.260Z,67.60
2022-08-21T20:40:32.074Z,67.60
2022-08-21T20:43:00.817Z,67.80
2022-08-21T20:45:31.379Z,67.90
2022-08-21T20:48:11.400Z,67.80
2022-08-21T20:50:48.512Z,68.30
2022-08-21T20:53:43.834Z,68.10
2022-08-21T20:56:48.419Z,68.70
2022-08-21T20:59:33.966Z,68.80
2022-08-21T21:02:07.924Z,69.10
2022-08-21T21:04:51.560Z,68.70
2022-08-21T21:07:41.423Z,68.60
2022-08-21T21:10:16.324Z,68.60
2022-08-21T21:12:53.336Z,68.40
2022-08-21T21:15:31.497Z,68.50
2022-08-21T21:18:33.098Z,68.80
2022-08-21T21:21:32.972Z,68.30
2022-08-21T21:24:09.775Z,68.50
2022-08-21T21:27:02.319Z,69.50
2022-08-21T21:29:41.777Z,69.60
2022-08-21T21:32:09.212Z,69.80
2022-08-21T21:34:47.460Z,70.20
2022-08-21T21:37:39.652Z,70.50
2022-08-21T21:40:41.951Z,70.50
2022-08-21T21:43:29.902Z,70.60
2022-08-21T21:46:17.325Z,70.60
2022-08-21T21:49:02.524Z,71.00
2022-08-21T21:55:05.378Z,71.30
2022-08-21T21:57:58.089Z,71.40
2022-08-21T22:00:27.972Z,71.60
2022-08-21T22:02:58.710Z,71.40
2022-08-21T22:05:56.152Z,71.20
2022-08-21T22:08:24.390Z,71.00
2022-08-21T22:11:08.929Z,70.50
2022-08-21T22:14:10.843Z,70.40
2022-08-21T22:16:38.525Z,70.40
2022-08-21T22:19:29.411Z,70.00
2022-08-21T22:22:06.485Z,70.40
2022-08-21T22:24:41.602Z,70.10
2022-08-21T22:27:17.027Z,69.80
2022-08-21T22:29:55.997Z,69.70
2022-08-21T22:32:40.143Z,69.80
2022-08-21T22:35:21.447Z,69.80
2022-08-21T22:41:48.584Z,69.60
2022-08-21T22:44:23.082Z,69.40
2022-08-21T22:46:59.164Z,69.70
2022-08-21T22:49:33.227Z,69.80
2022-08-21T22:52:33.409Z,69.70
2022-08-21T22:55:17.486Z,70.00
2022-08-21T22:57:46.048Z,69.70
2022-08-21T23:00:39.173Z,70.60
2022-08-21T23:03:17.261Z,69.90
2022-08-21T23:05:47.981Z,69.60
2022-08-21T23:08:31.648Z,69.60
2022-08-21T23:11:04.092Z,69.90
2022-08-21T23:14:04.103Z,69.70
2022-08-21T23:16:52.997Z,69.90
2022-08-21T23:19:26.859Z,70.10
2022-08-21T23:22:21.864Z,69.70
2022-08-21T23:25:26.912Z,70.00
2022-08-21T23:28:13.579Z,70.30
2022-08-21T23:31:03.997Z,69.70
2022-08-21T23:33:59.024Z,70.10
2022-08-21T23:37:14.074Z,70.00
2022-08-21T23:40:18.362Z,70.20
2022-08-21T23:43:00.590Z,70.30
2022-08-21T23:46:00.101Z,70.50
2022-08-21T23:48:50.093Z,70.40
2022-08-21T23:51:33.801Z,70.80
2022-08-21T23:54:17.334Z,71.20
2022-08-21T23:57:08.247Z,70.30
